Time;durP1;ratioP1;P1;durP2;ratioP2;P2;SDS_P1;SDS_P2;PMS_P1;PMS_P2;Temp;Humidity;BMP_temperature;BMP_pressure;BME280_temperature;BME280_humidity;BME280_pressure;Samples;Min_cycle;Max_cycle;Signal;HPM_P1;HPM_P2
2021/09/09 00:00:48;;;;;;;4.32;3.80;;;;;;;-142.25;100.00;58004.16;5055608;28;20039;-59
2021/09/09 00:03:13;;;;;;;4.32;3.83;;;;;;;-142.25;100.00;58004.16;5055074;28;20033;-60
2021/09/09 00:05:40;;;;;;;5.05;3.80;;;;;;;-142.25;100.00;58004.16;5054673;28;20056;-59
2021/09/09 00:08:05;;;;;;;6.32;3.42;;;;;;;-142.25;100.00;58004.16;5053642;28;20392;-59
2021/09/09 00:10:31;;;;;;;5.13;3.15;;;;;;;-142.25;100.00;58004.16;5055705;28;20456;-57
2021/09/09 00:12:57;;;;;;;6.82;3.28;;;;;;;-142.25;100.00;58004.16;5054668;28;20033;-58
2021/09/09 00:15:22;;;;;;;3.30;3.05;;;;;;;-142.25;100.00;58004.16;5054145;28;20041;-56
2021/09/09 00:17:47;;;;;;;4.18;2.95;;;;;;;-142.25;100.00;58004.16;5054494;28;20036;-57
2021/09/09 00:20:13;;;;;;;4.07;3.05;;;;;;;-142.25;100.00;58004.16;5054628;28;20037;-58
2021/09/09 00:22:40;;;;;;;5.72;3.15;;;;;;;-142.25;100.00;58004.16;5056517;28;20078;-58
2021/09/09 00:25:07;;;;;;;4.18;3.10;;;;;;;-142.25;100.00;58004.16;5053729;28;20036;-59
2021/09/09 00:27:32;;;;;;;3.85;3.45;;;;;;;-142.25;100.00;58004.16;5056794;28;20021;-58
2021/09/09 00:29:59;;;;;;;3.90;2.72;;;;;;;-142.25;100.00;58004.16;5054677;28;20033;-57
2021/09/09 00:32:24;;;;;;;3.38;3.08;;;;;;;-142.25;100.00;58004.16;5055316;28;20033;-59
2021/09/09 00:34:50;;;;;;;4.47;3.45;;;;;;;-142.25;100.00;58004.16;5053888;28;20040;-59
2021/09/09 00:37:15;;;;;;;3.38;3.08;;;;;;;-142.25;100.00;58004.16;5055490;28;20462;-58
2021/09/09 00:39:41;;;;;;;4.30;3.88;;;;;;;-142.25;100.00;58004.16;5054829;28;20045;-58
2021/09/09 00:42:06;;;;;;;7.25;3.78;;;;;;;-142.25;100.00;58004.16;5054135;28;20371;-57
2021/09/09 00:44:31;;;;;;;4.50;3.28;;;;;;;-142.25;100.00;58004.16;5054631;28;20115;-59
2021/09/09 00:47:09;;;;;;;6.93;3.80;;;;;;;-142.25;100.00;58004.16;5054953;28;20069;-56
2021/09/09 00:49:42;;;;;;;5.78;5.15;;;;;;;-142.25;100.00;58004.16;5053532;28;20476;-59
2021/09/09 00:52:09;;;;;;;7.13;4.20;;;;;;;-142.25;100.00;58004.16;5054563;28;20480;-56
2021/09/09 00:54:35;;;;;;;8.02;5.80;;;;;;;-142.25;100.00;58004.16;5053830;28;20400;-58
2021/09/09 00:57:03;;;;;;;9.05;4.05;;;;;;;-142.25;100.00;58004.16;5053272;28;20028;-59
2021/09/09 00:59:31;;;;;;;8.55;5.05;;;;;;;-142.25;100.00;58004.16;5053604;28;20396;-59
2021/09/09 01:01:57;;;;;;;8.63;4.70;;;;;;;-142.25;100.00;58004.16;5055792;28;21106;-58
2021/09/09 01:04:22;;;;;;;7.43;4.38;;;;;;;-142.25;100.00;58004.16;5054770;28;20052;-59
2021/09/09 01:06:48;;;;;;;5.32;4.22;;;;;;;-142.25;100.00;58004.16;5054714;28;20090;-59
2021/09/09 01:09:14;;;;;;;7.65;4.88;;;;;;;-142.25;100.00;58004.16;5056035;28;20105;-57
2021/09/09 01:11:39;;;;;;;8.32;4.93;;;;;;;-142.25;100.00;58004.16;5053981;28;20441;-58
2021/09/09 01:14:07;;;;;;;6.78;4.50;;;;;;;-142.25;100.00;58004.16;5053731;28;20107;-56
2021/09/09 01:16:34;;;;;;;7.20;5.15;;;;;;;-142.25;100.00;58004.16;5054887;28;20036;-58
2021/09/09 01:18:59;;;;;;;7.18;4.45;;;;;;;-142.25;100.00;58004.16;5053430;28;20036;-56
2021/09/09 01:21:25;;;;;;;8.35;5.03;;;;;;;-142.25;100.00;58004.16;5055024;28;20043;-57
2021/09/09 01:23:56;;;;;;;6.07;4.05;;;;;;;-142.25;100.00;58004.16;5054290;28;20037;-57
2021/09/09 01:26:23;;;;;;;8.48;4.93;;;;;;;-142.25;100.00;58004.16;5055718;28;20068;-58
2021/09/09 01:28:49;;;;;;;5.85;3.97;;;;;;;-142.25;100.00;58004.16;5068817;28;20040;-56
2021/09/09 01:31:15;;;;;;;9.00;5.30;;;;;;;-142.25;100.00;58004.16;5055277;28;20033;-56
2021/09/09 01:33:41;;;;;;;6.85;4.40;;;;;;;-142.25;100.00;58004.16;5054350;28;20106;-54
2021/09/09 01:36:07;;;;;;;10.23;6.18;;;;;;;-142.25;100.00;58004.16;5053062;28;20545;-58
2021/09/09 01:38:32;;;;;;;7.60;5.40;;;;;;;-142.25;100.00;58004.16;5051513;28;20428;-55
2021/09/09 01:40:57;;;;;;;6.60;4.75;;;;;;;-142.25;100.00;58004.16;5053800;28;20040;-56
2021/09/09 01:43:23;;;;;;;7.20;4.20;;;;;;;-142.25;100.00;58004.16;5053002;28;20039;-54
2021/09/09 01:45:48;;;;;;;9.52;5.18;;;;;;;-142.25;100.00;58004.16;5053023;28;20435;-58
2021/09/09 01:48:14;;;;;;;6.63;4.72;;;;;;;-142.25;100.00;58004.16;5051987;28;20083;-53
2021/09/09 01:50:39;;;;;;;6.38;4.35;;;;;;;-142.25;100.00;58004.16;5053826;28;20037;-55
2021/09/09 01:53:05;;;;;;;10.15;5.00;;;;;;;-142.25;100.00;58004.16;5053987;28;20376;-56
2021/09/09 01:55:31;;;;;;;8.98;6.28;;;;;;;-142.25;100.00;58004.16;5061850;28;20084;-58
2021/09/09 01:57:56;;;;;;;9.02;5.65;;;;;;;-142.25;100.00;58004.16;5053853;28;20469;-56
2021/09/09 02:00:21;;;;;;;6.50;4.68;;;;;;;-142.25;100.00;58004.16;5053100;28;20083;-55
2021/09/09 02:02:47;;;;;;;6.20;4.82;;;;;;;-142.25;100.00;58004.16;5053779;28;20061;-57
2021/09/09 02:05:13;;;;;;;8.95;4.82;;;;;;;-142.25;100.00;58004.16;5052257;28;20126;-58
2021/09/09 02:07:39;;;;;;;8.13;5.03;;;;;;;-142.25;100.00;58004.16;5051306;28;20037;-56
2021/09/09 02:10:06;;;;;;;7.70;3.88;;;;;;;-142.25;100.00;58004.16;5051319;28;20127;-57
2021/09/09 02:12:31;;;;;;;6.93;4.85;;;;;;;-142.25;100.00;58004.16;5052885;28;20032;-57
2021/09/09 02:14:57;;;;;;;9.73;5.80;;;;;;;-142.25;100.00;58004.16;5051510;28;20051;-60
2021/09/09 02:17:22;;;;;;;8.85;4.68;;;;;;;-142.25;100.00;58004.16;5054831;28;20058;-59
2021/09/09 02:19:48;;;;;;;7.93;5.47;;;;;;;-142.25;100.00;58004.16;5052734;28;20033;-59
2021/09/09 02:22:13;;;;;;;10.68;5.32;;;;;;;-142.25;100.00;58004.16;5050410;28;20044;-57
2021/09/09 02:24:45;;;;;;;13.80;5.70;;;;;;;-142.25;100.00;58004.16;5051023;28;20032;-59
2021/09/09 02:27:14;;;;;;;7.45;5.07;;;;;;;-142.25;100.00;58004.16;5054206;28;20029;-58
2021/09/09 02:29:41;;;;;;;7.43;4.60;;;;;;;-142.25;100.00;58004.16;5054989;28;20082;-56
2021/09/09 02:32:07;;;;;;;4.93;4.00;;;;;;;-142.25;100.00;58004.16;5052682;28;20067;-59
2021/09/09 02:34:32;;;;;;;6.00;4.50;;;;;;;-142.25;100.00;58004.16;5053293;28;20029;-59
2021/09/09 02:36:58;;;;;;;8.55;5.45;;;;;;;-142.25;100.00;58004.16;5052889;28;20127;-57
2021/09/09 02:39:23;;;;;;;17.17;5.95;;;;;;;-142.25;100.00;58004.16;5052202;28;20037;-53
2021/09/09 02:41:49;;;;;;;7.53;4.95;;;;;;;-142.25;100.00;58004.16;5051536;28;20388;-58
2021/09/09 02:44:14;;;;;;;8.60;4.82;;;;;;;-142.25;100.00;58004.16;5053885;28;20031;-59
2021/09/09 02:46:39;;;;;;;7.18;4.60;;;;;;;-142.25;100.00;58004.16;5055258;28;20091;-58
2021/09/09 02:49:05;;;;;;;6.63;4.50;;;;;;;-142.25;100.00;58004.16;5052864;28;20059;-60
2021/09/09 02:51:30;;;;;;;12.68;5.78;;;;;;;-142.25;100.00;58004.16;5050647;28;20033;-57
2021/09/09 02:53:56;;;;;;;11.30;5.75;;;;;;;-142.25;100.00;58004.16;5052463;28;20285;-60
2021/09/09 02:56:21;;;;;;;10.70;4.95;;;;;;;-142.25;100.00;58004.16;5053144;28;20480;-60
2021/09/09 02:58:47;;;;;;;8.15;5.25;;;;;;;-142.25;100.00;58004.16;5054853;28;20473;-60
2021/09/09 03:01:12;;;;;;;8.50;4.68;;;;;;;-142.25;100.00;58004.16;5053677;28;20380;-56
2021/09/09 03:03:38;;;;;;;9.10;5.22;;;;;;;-142.25;100.00;58004.16;5050266;28;20393;-63
2021/09/09 03:06:03;;;;;;;7.40;5.18;;;;;;;-142.25;100.00;58004.16;5053943;28;20167;-58
2021/09/09 03:08:29;;;;;;;8.40;5.00;;;;;;;-142.25;100.00;58004.16;5051920;28;20037;-58
2021/09/09 03:10:54;;;;;;;8.02;4.38;;;;;;;-142.25;100.00;58004.16;5051536;28;20419;-60
2021/09/09 03:13:20;;;;;;;9.30;5.22;;;;;;;-142.25;100.00;58004.16;5052460;28;20472;-58
2021/09/09 03:15:45;;;;;;;12.00;6.38;;;;;;;-142.25;100.00;58004.16;5051338;28;20029;-56
2021/09/09 03:18:11;;;;;;;8.60;4.82;;;;;;;-142.25;100.00;58004.16;5053052;28;20040;-58
2021/09/09 03:20:36;;;;;;;6.60;4.55;;;;;;;-142.25;100.00;58004.16;5088651;28;20040;-59
2021/09/09 03:23:01;;;;;;;5.80;4.55;;;;;;;-142.25;100.00;58004.16;5056578;28;20032;-58
2021/09/09 03:25:27;;;;;;;8.85;4.57;;;;;;;-142.25;100.00;58004.16;5055351;28;20535;-57
2021/09/09 03:27:52;;;;;;;5.93;4.07;;;;;;;-142.25;100.00;58004.16;5055517;28;20040;-57
2021/09/09 03:30:18;;;;;;;5.63;4.07;;;;;;;-142.25;100.00;58004.16;5055768;28;20040;-59
2021/09/09 03:32:43;;;;;;;5.70;4.28;;;;;;;-142.25;100.00;58004.16;5055187;28;20037;-60
2021/09/09 03:35:09;;;;;;;8.38;4.65;;;;;;;-142.25;100.00;58004.16;5055326;28;20102;-60
2021/09/09 03:37:35;;;;;;;5.97;4.10;;;;;;;-142.25;100.00;58004.16;5055265;28;20111;-60
2021/09/09 03:40:00;;;;;;;8.68;5.07;;;;;;;-142.25;100.00;58004.16;5055440;28;20033;-60
2021/09/09 03:42:26;;;;;;;7.30;4.45;;;;;;;-142.25;100.00;58004.16;5053439;28;20051;-59
2021/09/09 03:44:51;;;;;;;5.00;3.85;;;;;;;-142.25;100.00;58004.16;5052828;28;20036;-58
2021/09/09 03:47:17;;;;;;;14.15;5.30;;;;;;;-142.25;100.00;58004.16;5054727;28;20055;-58
2021/09/09 03:49:42;;;;;;;6.70;4.43;;;;;;;-142.25;100.00;58004.16;5056123;28;20471;-61
2021/09/09 03:52:08;;;;;;;8.10;4.30;;;;;;;-142.25;100.00;58004.16;5055063;28;20040;-57
2021/09/09 03:54:33;;;;;;;12.68;5.85;;;;;;;-142.25;100.00;58004.16;5057295;28;20041;-58
2021/09/09 03:56:58;;;;;;;10.30;4.03;;;;;;;-142.25;100.00;58004.16;5055343;28;20067;-61
2021/09/09 03:59:24;;;;;;;13.40;6.07;;;;;;;-142.25;100.00;58004.16;5053512;28;20163;-57
2021/09/09 04:01:49;;;;;;;10.57;4.80;;;;;;;-142.25;100.00;58004.16;5055473;28;20110;-59
2021/09/09 04:04:15;;;;;;;7.85;4.88;;;;;;;-142.25;100.00;58004.16;5055947;28;20135;-58
2021/09/09 04:06:40;;;;;;;7.57;4.88;;;;;;;-142.25;100.00;58004.16;5055325;28;20035;-58
2021/09/09 04:09:06;;;;;;;8.10;5.15;;;;;;;-142.25;100.00;58004.16;5060751;28;20436;-57
2021/09/09 04:11:31;;;;;;;6.47;4.90;;;;;;;-142.25;100.00;58004.16;5063428;28;20556;-61
2021/09/09 04:13:57;;;;;;;6.65;4.35;;;;;;;-142.25;100.00;58004.16;5053878;28;20112;-55
2021/09/09 04:16:22;;;;;;;9.38;5.15;;;;;;;-142.25;100.00;58004.16;5054155;28;20047;-59
2021/09/09 04:18:47;;;;;;;8.80;4.47;;;;;;;-142.25;100.00;58004.16;5056029;28;20041;-59
2021/09/09 04:21:13;;;;;;;6.00;4.60;;;;;;;-142.25;100.00;58004.16;5055443;28;20020;-57
2021/09/09 04:23:38;;;;;;;7.63;4.60;;;;;;;-142.25;100.00;58004.16;5053399;28;20037;-56
2021/09/09 04:26:04;;;;;;;7.80;5.00;;;;;;;-142.25;100.00;58004.16;5087196;28;20029;-59
2021/09/09 04:28:29;;;;;;;7.57;4.63;;;;;;;-142.25;100.00;58004.16;5054186;28;20052;-59
2021/09/09 04:30:55;;;;;;;9.40;4.43;;;;;;;-142.25;100.00;58004.16;5052735;28;20269;-56
2021/09/09 04:33:20;;;;;;;9.27;5.05;;;;;;;-142.25;100.00;58004.16;5053607;28;20035;-57
2021/09/09 04:35:46;;;;;;;8.88;5.00;;;;;;;-142.25;100.00;58004.16;5056425;28;20113;-57
2021/09/09 04:38:11;;;;;;;12.18;5.43;;;;;;;-142.25;100.00;58004.16;5055843;28;20484;-56
2021/09/09 04:40:37;;;;;;;14.65;6.85;;;;;;;-142.25;100.00;58004.16;5055659;28;20025;-59
2021/09/09 04:43:02;;;;;;;14.55;4.95;;;;;;;-142.25;100.00;58004.16;5056079;28;20587;-58
2021/09/09 04:45:28;;;;;;;10.48;5.70;;;;;;;-142.25;100.00;58004.16;5055405;28;20086;-59
2021/09/09 04:47:53;;;;;;;12.98;5.85;;;;;;;-142.25;100.00;58004.16;5055583;28;20060;-59
2021/09/09 04:50:18;;;;;;;10.55;5.25;;;;;;;-142.25;100.00;58004.16;5052782;28;20074;-56
2021/09/09 04:52:44;;;;;;;7.80;5.03;;;;;;;-142.25;100.00;58004.16;5054001;28;20041;-59
2021/09/09 04:55:10;;;;;;;12.35;5.00;;;;;;;-142.25;100.00;58004.16;5055322;28;20091;-60
2021/09/09 04:57:35;;;;;;;7.82;4.82;;;;;;;-142.25;100.00;58004.16;5056421;28;20044;-57
2021/09/09 05:00:01;;;;;;;8.55;4.88;;;;;;;-142.25;100.00;58004.16;5055840;28;20078;-55
2021/09/09 05:02:26;;;;;;;6.15;4.53;;;;;;;-142.25;100.00;58004.16;5055129;28;20555;-56
2021/09/09 05:04:52;;;;;;;9.65;5.45;;;;;;;-142.25;100.00;58004.16;5052973;28;20563;-62
2021/09/09 05:07:17;;;;;;;12.32;5.53;;;;;;;-142.25;100.00;58004.16;5053412;28;20029;-65
2021/09/09 05:09:42;;;;;;;8.68;4.85;;;;;;;-142.25;100.00;58004.16;5056021;28;20456;-61
2021/09/09 05:12:08;;;;;;;12.77;6.20;;;;;;;-142.25;100.00;58004.16;5054094;28;20074;-62
2021/09/09 05:14:35;;;;;;;12.90;5.60;;;;;;;-142.25;100.00;58004.16;5054838;28;20033;-65
2021/09/09 05:17:00;;;;;;;11.63;4.60;;;;;;;-142.25;100.00;58004.16;5051838;28;20029;-62
2021/09/09 05:19:27;;;;;;;10.95;4.40;;;;;;;-142.25;100.00;58004.16;5051987;28;20464;-61
2021/09/09 05:21:52;;;;;;;9.60;5.35;;;;;;;-142.25;100.00;58004.16;5054548;28;20036;-60
2021/09/09 05:24:17;;;;;;;9.73;4.50;;;;;;;-142.25;100.00;58004.16;5055366;28;20053;-61
2021/09/09 05:26:43;;;;;;;9.05;5.32;;;;;;;-142.25;100.00;58004.16;5053562;28;20466;-60
2021/09/09 05:29:08;;;;;;;10.10;5.25;;;;;;;-142.25;100.00;58004.16;5054395;28;20047;-60
2021/09/09 05:31:34;;;;;;;9.90;4.85;;;;;;;-142.25;100.00;58004.16;5054468;28;20370;-61
2021/09/09 05:33:59;;;;;;;10.82;5.53;;;;;;;-142.25;100.00;58004.16;5052758;28;20654;-59
2021/09/09 05:36:25;;;;;;;8.75;4.78;;;;;;;-142.25;100.00;58004.16;5053428;28;20033;-62
2021/09/09 05:38:50;;;;;;;6.35;4.25;;;;;;;-142.25;100.00;58004.16;5053247;28;20045;-59
2021/09/09 05:41:16;;;;;;;10.55;5.45;;;;;;;-142.25;100.00;58004.16;5050033;28;20037;-60
2021/09/09 05:43:41;;;;;;;10.05;4.93;;;;;;;-142.25;100.00;58004.16;5050928;28;20032;-61
2021/09/09 05:46:07;;;;;;;7.22;4.32;;;;;;;-142.25;100.00;58004.16;5053349;28;20124;-61
2021/09/09 05:48:32;;;;;;;8.30;4.22;;;;;;;-142.25;100.00;58004.16;5053327;28;20032;-59
2021/09/09 05:50:58;;;;;;;7.78;4.78;;;;;;;-142.25;100.00;58004.16;5053021;28;20036;-60
2021/09/09 05:53:23;;;;;;;5.75;4.88;;;;;;;-142.25;100.00;58004.16;5052716;28;20063;-62
2021/09/09 05:55:48;;;;;;;7.53;4.45;;;;;;;-142.25;100.00;58004.16;5055003;28;20111;-60
2021/09/09 05:58:14;;;;;;;8.57;4.60;;;;;;;-142.25;100.00;58004.16;5052432;28;20036;-60
2021/09/09 06:00:39;;;;;;;7.22;4.28;;;;;;;-142.25;100.00;58004.16;5052817;28;20134;-60
2021/09/09 06:03:05;;;;;;;6.88;4.22;;;;;;;-142.25;100.00;58004.16;5053162;28;20518;-60
2021/09/09 06:05:34;;;;;;;18.90;6.00;;;;;;;-142.25;100.00;58004.16;5053924;28;20516;-60
2021/09/09 06:07:59;;;;;;;8.50;5.18;;;;;;;-142.25;100.00;58004.16;5055037;28;20039;-59
2021/09/09 06:10:25;;;;;;;20.58;9.25;;;;;;;-142.25;100.00;58004.16;5051951;28;20029;-58
2021/09/09 06:12:50;;;;;;;6.30;4.50;;;;;;;-142.25;100.00;58004.16;5053773;28;20029;-60
2021/09/09 06:15:16;;;;;;;10.00;4.57;;;;;;;-142.25;100.00;58004.16;5051838;28;20049;-61
2021/09/09 06:17:41;;;;;;;12.35;5.40;;;;;;;-142.25;100.00;58004.16;5055070;28;20032;-60
2021/09/09 06:20:07;;;;;;;7.97;5.38;;;;;;;-142.25;100.00;58004.16;5053271;28;20036;-57
2021/09/09 06:22:32;;;;;;;13.73;6.47;;;;;;;-142.25;100.00;58004.16;5054174;28;20028;-57
2021/09/09 06:24:58;;;;;;;8.63;5.35;;;;;;;-142.25;100.00;58004.16;5060352;28;20047;-59
2021/09/09 06:27:24;;;;;;;13.45;6.07;;;;;;;-142.25;100.00;58004.16;5064949;28;20024;-61
2021/09/09 06:29:49;;;;;;;24.27;8.70;;;;;;;-142.25;100.00;58004.16;5052790;28;20090;-62
2021/09/09 06:32:15;;;;;;;13.45;6.50;;;;;;;-142.25;100.00;58004.16;5054221;28;20029;-63
2021/09/09 06:34:40;;;;;;;12.90;8.80;;;;;;;-142.25;100.00;58004.16;5053536;28;20455;-60
2021/09/09 06:37:05;;;;;;;25.13;23.17;;;;;;;-142.25;100.00;58004.16;5054378;28;20067;-57
2021/09/09 06:39:31;;;;;;;55.75;52.00;;;;;;;-142.25;100.00;58004.16;5053115;28;20126;-58
2021/09/09 06:41:56;;;;;;;61.63;58.30;;;;;;;-142.25;100.00;58004.16;5053674;28;20052;-60
2021/09/09 06:44:22;;;;;;;102.53;97.15;;;;;;;-142.25;100.00;58004.16;5054179;28;20628;-61
2021/09/09 06:46:47;;;;;;;183.50;175.32;;;;;;;-142.25;100.00;58004.16;5054392;28;20033;-61
2021/09/09 06:49:13;;;;;;;223.02;213.55;;;;;;;-142.25;100.00;58004.16;5051536;28;20083;-61
2021/09/09 06:51:38;;;;;;;276.65;264.02;;;;;;;-142.25;100.00;58004.16;5052534;28;20033;-62
2021/09/09 06:54:04;;;;;;;376.98;358.02;;;;;;;-142.25;100.00;58004.16;5057799;28;20104;-60
2021/09/09 06:56:30;;;;;;;282.45;269.17;;;;;;;-142.25;100.00;58004.16;5056400;28;20047;-62
2021/09/09 06:58:55;;;;;;;340.55;322.90;;;;;;;-142.25;100.00;58004.16;5059255;28;20029;-61
2021/09/09 07:01:21;;;;;;;275.88;262.55;;;;;;;-142.25;100.00;58004.16;5059454;28;20033;-57
2021/09/09 07:03:47;;;;;;;292.75;278.58;;;;;;;-142.25;100.00;58004.16;5056913;28;20123;-59
2021/09/09 07:06:14;;;;;;;310.90;296.48;;;;;;;-142.25;100.00;58004.16;5055743;28;20112;-60
2021/09/09 07:08:39;;;;;;;146.07;139.45;;;;;;;-142.25;100.00;58004.16;5056521;28;20699;-61
2021/09/09 07:11:05;;;;;;;175.18;167.52;;;;;;;-142.25;100.00;58004.16;5056538;28;20036;-62
2021/09/09 07:13:31;;;;;;;415.75;394.50;;;;;;;-142.25;100.00;58004.16;5056445;28;20069;-61
2021/09/09 07:15:57;;;;;;;253.07;241.80;;;;;;;-142.25;100.00;58004.16;5056874;28;20544;-61
2021/09/09 07:18:24;;;;;;;277.38;264.85;;;;;;;-142.25;100.00;58004.16;5055784;28;20033;-61
2021/09/09 07:20:50;;;;;;;209.07;199.90;;;;;;;-142.25;100.00;58004.16;5056505;28;20131;-61
2021/09/09 07:23:16;;;;;;;295.75;281.77;;;;;;;-142.25;100.00;58004.16;5055265;28;20037;-63
2021/09/09 07:25:41;;;;;;;555.65;524.45;;;;;;;-142.25;100.00;58004.16;5056926;28;20114;-62
2021/09/09 07:28:07;;;;;;;309.55;295.08;;;;;;;-142.25;100.00;58004.16;5056551;28;20429;-62
2021/09/09 07:30:32;;;;;;;395.60;375.80;;;;;;;-142.25;100.00;58004.16;5056700;28;20472;-63
2021/09/09 07:32:58;;;;;;;391.45;371.77;;;;;;;-142.25;100.00;58004.16;5056464;28;20037;-59
2021/09/09 07:35:24;;;;;;;591.00;556.45;;;;;;;-142.25;100.00;58004.16;5054983;28;20036;-62
2021/09/09 07:37:49;;;;;;;436.60;413.40;;;;;;;-142.25;100.00;58004.16;5056710;28;20041;-60
2021/09/09 07:40:15;;;;;;;521.42;492.30;;;;;;;-142.25;100.00;58004.16;5054194;28;20243;-63
2021/09/09 07:42:40;;;;;;;393.20;373.23;;;;;;;-142.25;100.00;58004.16;5055610;28;20091;-61
2021/09/09 07:45:06;;;;;;;511.45;483.20;;;;;;;-142.25;100.00;58004.16;5055886;28;20044;-62
2021/09/09 07:47:32;;;;;;;384.73;364.88;;;;;;;-142.25;100.00;58004.16;5057836;28;20540;-60
2021/09/09 07:49:57;;;;;;;388.02;368.33;;;;;;;-142.25;100.00;58004.16;5055432;28;20032;-63
2021/09/09 07:52:23;;;;;;;398.50;377.88;;;;;;;-142.25;100.00;58004.16;5055648;28;20112;-61
2021/09/09 07:54:48;;;;;;;491.02;464.33;;;;;;;-142.25;100.00;58004.16;5053388;28;20444;-62
2021/09/09 07:57:14;;;;;;;510.13;481.70;;;;;;;-142.25;100.00;58004.16;5055618;28;20083;-61
2021/09/09 07:59:40;;;;;;;538.85;508.33;;;;;;;-142.25;100.00;58004.16;5054444;28;20464;-61
2021/09/09 08:02:07;;;;;;;592.65;558.15;;;;;;;-142.25;100.00;58004.16;5055307;28;20127;-62
2021/09/09 08:04:32;;;;;;;609.20;571.75;;;;;;;-142.25;100.00;58004.16;5053199;28;20134;-61
2021/09/09 08:06:57;;;;;;;847.40;797.53;;;;;;;-142.25;100.00;58004.16;5054277;28;20040;-62
2021/09/09 08:09:23;;;;;;;794.65;747.45;;;;;;;-142.25;100.00;58004.16;5056123;28;20082;-62
2021/09/09 08:11:48;;;;;;;765.35;719.72;;;;;;;-142.25;100.00;58004.16;5054279;28;20041;-62
2021/09/09 08:14:14;;;;;;;790.53;743.83;;;;;;;-142.25;100.00;58004.16;5054319;28;20098;-61
2021/09/09 08:16:39;;;;;;;746.95;702.10;;;;;;;-142.25;100.00;58004.16;5055207;28;20040;-61
2021/09/09 08:19:05;;;;;;;735.03;690.53;;;;;;;-142.25;100.00;58004.16;5054754;28;20037;-60
2021/09/09 08:21:31;;;;;;;785.67;738.88;;;;;;;-142.25;100.00;58004.16;5056010;28;20036;-61
2021/09/09 08:23:56;;;;;;;796.63;749.45;;;;;;;-142.25;100.00;58004.16;5054859;28;20041;-62
2021/09/09 08:26:22;;;;;;;779.33;732.65;;;;;;;-142.25;100.00;58004.16;5053775;28;20469;-63
2021/09/09 08:28:48;;;;;;;794.47;747.38;;;;;;;-142.25;100.00;58004.16;5054501;28;20036;-62
2021/09/09 08:31:13;;;;;;;688.83;647.13;;;;;;;-142.25;100.00;58004.16;5054669;28;20476;-59
2021/09/09 08:33:39;;;;;;;736.85;692.55;;;;;;;-142.25;100.00;58004.16;5055248;28;20469;-59
2021/09/09 08:36:06;;;;;;;688.33;647.88;;;;;;;-142.25;100.00;58004.16;5055401;28;20037;-61
2021/09/09 08:38:31;;;;;;;650.38;610.78;;;;;;;-142.25;100.00;58004.16;5056077;28;20102;-62
2021/09/09 08:40:57;;;;;;;627.67;590.00;;;;;;;-142.25;100.00;58004.16;5069763;28;20041;-62
2021/09/09 08:43:22;;;;;;;587.03;552.42;;;;;;;-142.25;100.00;58004.16;5061375;28;20029;-59
2021/09/09 08:45:52;;;;;;;566.95;534.17;;;;;;;-142.25;100.00;58004.16;5054303;28;20067;-61
2021/09/09 08:48:18;;;;;;;558.30;526.05;;;;;;;-142.25;100.00;58004.16;5055774;28;20055;-61
2021/09/09 08:50:44;;;;;;;588.90;554.20;;;;;;;-142.25;100.00;58004.16;5054453;28;20040;-62
2021/09/09 08:53:11;;;;;;;574.30;540.42;;;;;;;-142.25;100.00;58004.16;5051840;28;20086;-62
2021/09/09 08:55:37;;;;;;;587.28;552.10;;;;;;;-142.25;100.00;58004.16;5054040;28;20036;-62
2021/09/09 08:58:05;;;;;;;655.58;615.38;;;;;;;-142.25;100.00;58004.16;5055517;28;20029;-60
2021/09/09 09:00:31;;;;;;;573.97;540.47;;;;;;;-142.25;100.00;58004.16;5056362;28;20064;-61
2021/09/09 09:02:56;;;;;;;600.00;564.08;;;;;;;-142.25;100.00;58004.16;5085348;28;20123;-65
2021/09/09 09:05:24;;;;;;;617.10;579.70;;;;;;;-142.25;100.00;58004.16;5055582;28;20861;-62
2021/09/09 09:08:04;;;;;;;577.30;543.53;;;;;;;-142.25;100.00;58004.16;5054215;28;20037;-61
2021/09/09 09:10:31;;;;;;;582.17;548.00;;;;;;;-142.25;100.00;58004.16;5052510;28;20128;-62
2021/09/09 09:12:58;;;;;;;615.50;578.45;;;;;;;-142.25;100.00;58004.16;5053676;28;20037;-60
2021/09/09 09:15:27;;;;;;;542.92;511.48;;;;;;;-142.25;100.00;58004.16;5053349;28;20059;-62
2021/09/09 09:18:09;;;;;;;545.17;513.95;;;;;;;-142.25;100.00;58004.16;5055171;28;20450;-61
2021/09/09 09:20:42;;;;;;;567.60;534.30;;;;;;;-142.25;100.00;58004.16;5052756;28;20495;-63
2021/09/09 09:23:14;;;;;;;614.47;577.40;;;;;;;-142.25;100.00;58004.16;5052154;28;20107;-59
2021/09/09 09:25:52;;;;;;;620.22;583.13;;;;;;;-142.25;100.00;58004.16;5055147;28;20025;-64
2021/09/09 09:28:47;;;;;;;655.50;615.72;;;;;;;-142.25;100.00;58004.16;5053726;28;20097;-63
2021/09/09 09:31:20;;;;;;;613.35;575.58;;;;;;;-142.25;100.00;58004.16;5051738;28;20067;-63
2021/09/09 09:33:50;;;;;;;525.15;494.88;;;;;;;-142.25;100.00;58004.16;5052724;28;20044;-64
2021/09/09 09:36:28;;;;;;;529.83;499.38;;;;;;;-142.25;100.00;58004.16;5052762;28;20032;-61
2021/09/09 09:39:14;;;;;;;581.53;546.63;;;;;;;-142.25;100.00;58004.16;5052263;28;20036;-64
2021/09/09 09:41:55;;;;;;;594.55;559.28;;;;;;;-142.25;100.00;58004.16;5051568;28;20544;-64
2021/09/09 09:44:47;;;;;;;561.28;527.90;;;;;;;-142.25;100.00;58004.16;5053631;28;20457;-64
2021/09/09 09:47:16;;;;;;;559.85;527.47;;;;;;;-142.25;100.00;58004.16;5051335;28;20048;-63
2021/09/09 09:49:44;;;;;;;559.00;525.95;;;;;;;-142.25;100.00;58004.16;5054340;28;20039;-65
2021/09/09 09:52:23;;;;;;;519.33;489.85;;;;;;;-142.25;100.00;58004.16;5053854;28;20051;-66
2021/09/09 09:54:50;;;;;;;502.05;472.10;;;;;;;-142.25;100.00;58004.16;5054774;28;20036;-63
2021/09/09 09:57:16;;;;;;;534.90;504.10;;;;;;;-142.25;100.00;58004.16;5059612;28;20492;-63
2021/09/09 09:59:42;;;;;;;522.55;492.17;;;;;;;-142.25;100.00;58004.16;5060243;28;20047;-64
2021/09/09 10:02:10;;;;;;;522.47;492.67;;;;;;;-142.25;100.00;58004.16;5057251;28;20040;-64
2021/09/09 10:04:36;;;;;;;561.75;528.63;;;;;;;-142.25;100.00;58004.16;5059411;28;20665;-65
2021/09/09 10:07:01;;;;;;;540.13;509.27;;;;;;;-142.25;100.00;58004.16;5061610;28;20065;-63
2021/09/09 10:09:27;;;;;;;556.58;524.28;;;;;;;-142.25;100.00;58004.16;5055108;28;20040;-63
2021/09/09 10:11:53;;;;;;;595.97;560.33;;;;;;;-142.25;100.00;58004.16;5053057;28;20739;-63
2021/09/09 10:14:21;;;;;;;603.92;567.60;;;;;;;-142.25;100.00;58004.16;5050491;28;20032;-64
2021/09/09 10:16:48;;;;;;;552.88;520.28;;;;;;;-142.25;100.00;58004.16;5055400;28;20047;-64
2021/09/09 10:19:23;;;;;;;563.58;529.92;;;;;;;-142.25;100.00;58004.16;5053054;28;20116;-64
2021/09/09 10:21:50;;;;;;;521.40;491.23;;;;;;;-142.25;100.00;58004.16;5052605;28;20108;-63
2021/09/09 10:24:28;;;;;;;544.75;513.13;;;;;;;-142.25;100.00;58004.16;5053075;28;20045;-64
2021/09/09 10:27:14;;;;;;;537.95;506.08;;;;;;;-142.25;100.00;58004.16;5054457;28;20032;-64
2021/09/09 10:29:47;;;;;;;575.65;541.55;;;;;;;-142.25;100.00;58004.16;5053326;28;20047;-62
2021/09/09 10:32:31;;;;;;;523.90;493.67;;;;;;;-142.25;100.00;58004.16;5055759;28;20099;-63
2021/09/09 10:35:15;;;;;;;519.93;490.00;;;;;;;-142.25;100.00;58004.16;5051286;28;20046;-63
2021/09/09 10:37:41;;;;;;;476.73;450.08;;;;;;;-142.25;100.00;58004.16;5054959;28;20032;-63
2021/09/09 10:40:07;;;;;;;480.15;453.45;;;;;;;-142.25;100.00;58004.16;5053264;28;20036;-64
2021/09/09 10:42:36;;;;;;;517.38;487.40;;;;;;;-142.25;100.00;58004.16;5052517;28;20035;-64
2021/09/09 10:45:03;;;;;;;563.10;527.42;;;;;;;-142.25;100.00;58004.16;5056701;28;20035;-64
2021/09/09 10:47:29;;;;;;;586.22;549.97;;;;;;;-142.25;100.00;58004.16;5057041;28;20078;-63
2021/09/09 10:50:02;;;;;;;569.42;533.78;;;;;;;-142.25;100.00;58004.16;5054826;28;20032;-65
2021/09/09 10:52:27;;;;;;;615.38;576.40;;;;;;;-142.25;100.00;58004.16;5058007;28;20032;-62
2021/09/09 10:55:10;;;;;;;639.63;598.83;;;;;;;-142.25;100.00;58004.16;5060310;28;20494;-65